Time;durP1;ratioP1;P1;durP2;ratioP2;P2;SDS_P1;SDS_P2;PMS_P1;PMS_P2;Temp;Humidity;BMP_temperature;BMP_pressure;BME280_temperature;BME280_humidity;BME280_pressure;Samples;Min_cycle;Max_cycle;Signal;HPM_P1;HPM_P2
2022/06/06 00:01:29;;;;;;;7.05;4.53;;;17.20;99.90;;;16.33;78.92;101054.97;4934828;28;20491;-75
2022/06/06 00:03:55;;;;;;;10.13;4.55;;;17.20;99.90;;;16.25;79.50;101046.66;4953840;28;20428;-74
2022/06/06 00:06:21;;;;;;;7.68;5.07;;;17.20;99.90;;;16.25;79.46;101035.19;4960060;28;20030;-74
2022/06/06 00:08:48;;;;;;;8.63;4.57;;;17.20;99.90;;;16.25;79.75;101029.88;4953513;28;20023;-75
2022/06/06 00:11:15;;;;;;;9.27;5.22;;;17.20;99.90;;;16.20;79.84;101033.69;4957900;28;20765;-74
2022/06/06 00:13:45;;;;;;;6.35;4.45;;;17.20;99.90;;;16.23;79.92;101027.31;4951102;28;20035;-75
2022/06/06 00:16:11;;;;;;;7.95;4.38;;;17.10;99.90;;;16.17;79.95;101020.56;4935531;28;20034;-74
2022/06/06 00:18:38;;;;;;;7.07;4.65;;;17.10;99.90;;;16.20;80.56;101024.84;4955516;28;20038;-76
2022/06/06 00:21:08;;;;;;;8.45;5.05;;;17.20;99.90;;;16.25;79.91;101020.09;4932989;28;20105;-75
2022/06/06 00:23:35;;;;;;;6.72;5.00;;;17.20;99.90;;;16.31;79.33;101019.69;4956860;28;20049;-76
2022/06/06 00:26:04;;;;;;;10.20;5.13;;;17.20;99.90;;;16.36;79.31;101020.22;4952055;28;20034;-74
2022/06/06 00:28:30;;;;;;;7.13;4.68;;;17.30;99.90;;;16.40;79.01;101015.56;4954277;28;20022;-74
2022/06/06 00:30:57;;;;;;;7.65;4.70;;;17.30;99.90;;;16.43;78.37;101018.00;4941845;28;21147;-74
2022/06/06 00:36:09;;;;;;;6.65;4.57;;;17.40;99.90;;;16.47;77.67;101003.56;4942056;28;20062;-74
2022/06/06 00:38:35;;;;;;;9.40;4.90;;;17.40;99.90;;;16.51;77.96;101007.72;4959922;28;20142;-74
2022/06/06 00:41:00;;;;;;;;;;;17.40;99.90;;;16.44;77.53;100998.47;4960659;28;20055;-74
2022/06/06 00:43:26;;;;;;;9.68;4.70;;;17.40;99.90;;;16.47;77.32;100997.41;4950949;28;19927;-75
2022/06/06 00:45:56;;;;;;;;;;;17.40;99.90;;;16.45;76.73;100997.50;4959938;28;20070;-76
2022/06/06 00:48:36;;;;;;;8.38;4.72;;;17.40;99.90;;;16.47;76.37;100998.25;4956019;28;19910;-74
2022/06/06 00:51:15;;;;;;;12.15;5.15;;;17.40;99.90;;;16.49;76.16;100985.72;4959473;28;20093;-74
2022/06/06 00:53:54;;;;;;;9.15;4.75;;;17.40;99.90;;;16.49;75.67;100990.19;4958070;28;20038;-75
2022/06/06 00:56:48;;;;;;;9.02;4.80;;;17.40;99.90;;;16.48;75.63;100972.50;4951396;28;20050;-74
2022/06/06 00:59:23;;;;;;;10.57;4.95;;;17.40;99.90;;;16.45;75.15;100976.22;4950928;28;20046;-75
2022/06/06 01:01:52;;;;;;;8.70;4.68;;;17.40;99.90;;;16.52;74.32;100969.56;4961534;28;20043;-74
2022/06/06 01:04:21;;;;;;;7.90;4.40;;;17.50;99.90;;;16.56;73.97;100980.81;4948027;28;20023;-74
2022/06/06 01:06:47;;;;;;;9.90;4.32;;;17.50;99.90;;;16.60;73.49;100977.84;4940056;28;20531;-74
2022/06/06 01:09:17;;;;;;;8.82;4.90;;;17.50;99.90;;;16.63;72.40;100973.28;4963190;28;20105;-74
2022/06/06 01:11:51;;;;;;;8.65;4.32;;;17.60;99.90;;;16.66;72.42;100973.94;4961280;28;20040;-75
2022/06/06 01:14:22;;;;;;;7.57;4.95;;;17.60;99.90;;;16.65;71.57;100969.59;4956463;28;20030;-74
2022/06/06 01:17:10;;;;;;;8.32;4.40;;;17.50;99.90;;;16.68;71.02;100961.38;4956842;28;20439;-76
2022/06/06 01:20:20;;;;;;;10.07;4.40;;;17.60;99.90;;;16.69;70.91;100967.56;4960593;28;20043;-74
2022/06/06 01:23:41;;;;;;;9.00;4.28;;;17.60;99.90;;;16.70;70.49;100955.97;4948142;28;20381;-74
2022/06/06 01:26:30;;;;;;;7.35;4.32;;;17.60;99.90;;;16.68;70.33;100965.88;4958339;28;20089;-74
2022/06/06 01:29:18;;;;;;;6.78;4.03;;;17.60;99.90;;;16.74;69.34;100960.13;4954742;28;20042;-74
2022/06/06 01:31:59;;;;;;;13.27;3.75;;;17.60;99.90;;;16.74;68.95;100963.63;4953074;28;20081;-75
2022/06/06 01:34:32;;;;;;;7.80;3.55;;;17.60;99.90;;;16.74;68.23;100954.81;4960072;28;20031;-74
2022/06/06 01:36:59;;;;;;;6.15;4.10;;;17.70;99.90;;;16.81;67.92;100961.44;4958213;28;20034;-74
2022/06/06 01:39:30;;;;;;;4.88;3.83;;;17.70;99.90;;;16.88;67.70;100953.88;4941653;28;20062;-75
2022/06/06 01:42:22;;;;;;;10.90;3.88;;;17.70;99.90;;;16.86;67.17;100953.97;4952293;28;21102;-74
2022/06/06 01:45:10;;;;;;;6.03;3.47;;;17.80;99.90;;;16.86;66.88;100956.63;4958451;28;20041;-75
2022/06/06 01:47:49;;;;;;;10.68;3.70;;;17.80;99.90;;;16.87;66.49;100952.16;4953011;28;20676;-74
2022/06/06 01:50:17;;;;;;;4.95;3.25;;;17.80;99.90;;;16.90;66.04;100954.63;4958714;28;20126;-74
2022/06/06 01:53:06;;;;;;;5.22;3.60;;;17.80;99.90;;;16.92;65.90;100955.38;4963693;28;20034;-74
2022/06/06 01:55:39;;;;;;;6.05;3.63;;;17.80;99.90;;;16.90;65.32;100938.66;4961501;28;21454;-75
2022/06/06 01:58:15;;;;;;;6.38;3.20;;;17.80;99.90;;;16.91;65.23;100945.66;4960167;28;20046;-75
2022/06/06 02:00:40;;;;;;;10.45;3.58;;;17.90;99.90;;;16.96;64.96;100951.53;4938868;28;20442;-74
2022/06/06 02:03:08;;;;;;;4.45;3.33;;;17.90;99.90;;;16.96;64.43;100947.06;4936500;28;20027;-74
2022/06/06 02:05:34;;;;;;;5.13;3.33;;;17.90;99.90;;;17.00;64.36;100945.91;4939689;28;20058;-74
2022/06/06 02:08:00;;;;;;;6.32;3.30;;;17.90;99.90;;;17.02;64.23;100938.66;4962056;28;20034;-75
2022/06/06 02:10:27;;;;;;;4.97;3.00;;;17.90;99.90;;;16.99;63.91;100933.53;4951137;28;20031;-74
2022/06/06 02:12:53;;;;;;;5.57;2.97;;;17.90;99.90;;;16.97;64.01;100927.47;4963482;28;20038;-74
2022/06/06 02:15:23;;;;;;;6.10;3.17;;;17.90;99.90;;;17.00;63.76;100923.78;4962202;28;20110;-74
2022/06/06 02:17:49;;;;;;;10.40;3.38;;;17.90;99.90;;;17.00;63.96;100921.97;4953471;28;20054;-74
2022/06/06 02:20:18;;;;;;;6.75;3.22;;;18.00;99.90;;;17.02;63.92;100920.03;4961987;28;20046;-75
2022/06/06 02:22:44;;;;;;;6.43;3.13;;;18.00;99.90;;;17.05;63.43;100920.78;4934766;28;20031;-74
2022/06/06 02:25:12;;;;;;;5.97;3.50;;;18.00;99.90;;;17.05;63.29;100915.47;4956919;28;20027;-74
2022/06/06 02:27:39;;;;;;;7.18;2.60;;;18.00;99.90;;;17.01;62.81;100912.16;4936217;28;20062;-74
2022/06/06 02:30:16;;;;;;;5.93;3.50;;;18.00;99.90;;;17.09;63.04;100912.47;4954037;28;20053;-75
2022/06/06 02:32:43;;;;;;;7.15;3.60;;;18.00;99.90;;;17.10;63.21;100906.19;4958643;28;20110;-75
2022/06/06 02:35:13;;;;;;;7.55;3.42;;;18.00;99.90;;;17.13;62.53;100915.78;4976733;28;20520;-74
2022/06/06 02:37:40;;;;;;;6.72;3.70;;;18.00;99.90;;;17.13;62.32;100908.63;4944112;28;20077;-75
2022/06/06 02:40:09;;;;;;;8.43;3.80;;;18.10;99.90;;;17.14;62.25;100905.00;4916198;28;20038;-74
2022/06/06 02:42:36;;;;;;;6.68;3.78;;;18.10;99.90;;;17.16;62.13;100907.56;4945395;28;20111;-75
2022/06/06 02:45:02;;;;;;;6.43;3.90;;;18.10;99.90;;;17.20;62.05;100906.38;4943585;28;20069;-75
2022/06/06 02:47:29;;;;;;;7.93;3.83;;;18.10;99.90;;;17.19;62.16;100899.34;4933951;28;20019;-74
2022/06/06 02:49:56;;;;;;;6.57;3.97;;;18.10;99.90;;;17.23;62.24;100900.84;4947295;28;20042;-75
2022/06/06 02:52:22;;;;;;;7.22;3.40;;;18.10;99.90;;;17.19;61.89;100913.53;4943139;28;20033;-75
2022/06/06 02:54:47;;;;;;;11.73;3.80;;;18.20;99.90;;;17.25;61.97;100909.56;4954292;28;20664;-74
2022/06/06 02:57:13;;;;;;;7.18;4.00;;;18.20;99.90;;;17.20;62.23;100909.88;4952648;28;20023;-74
2022/06/06 02:59:42;;;;;;;7.25;3.58;;;18.10;99.90;;;17.24;62.13;100902.53;4952437;28;20039;-74
2022/06/06 03:02:09;;;;;;;6.68;3.85;;;18.20;99.90;;;17.21;62.20;100908.94;4957140;28;20038;-74
2022/06/06 03:04:38;;;;;;;11.35;3.70;;;18.20;99.90;;;17.21;62.12;100913.41;4960682;28;20035;-75
2022/06/06 03:07:19;;;;;;;7.47;3.80;;;18.10;99.90;;;17.24;62.14;100913.19;4960550;28;20054;-74
2022/06/06 03:10:09;;;;;;;7.38;3.55;;;18.10;99.90;;;17.28;62.08;100911.13;4950993;28;20660;-75
2022/06/06 03:13:04;;;;;;;5.82;3.80;;;18.20;99.90;;;17.25;62.20;100922.03;4956524;28;20031;-75
2022/06/06 03:22:33;;;;;;;5.18;3.38;;;18.20;99.90;;;17.09;64.18;100920.44;4951405;28;20116;-74
2022/06/06 03:25:20;;;;;;;6.95;4.00;;;18.00;99.90;;;16.99;65.30;100928.22;4961047;28;20021;-75
2022/06/06 03:28:27;;;;;;;9.10;3.85;;;17.90;99.90;;;16.90;66.14;100928.88;4953084;28;20022;-74
2022/06/06 03:31:21;;;;;;;8.27;3.88;;;17.80;99.90;;;16.79;67.02;100918.94;4958381;28;20032;-75
2022/06/06 03:33:59;;;;;;;15.95;4.28;;;17.80;99.90;;;16.77;66.67;100923.53;4927507;28;20034;-74
2022/06/06 03:36:46;;;;;;;8.70;3.67;;;17.70;99.90;;;16.71;67.53;100923.94;4951437;28;20035;-74
2022/06/06 03:39:41;;;;;;;7.22;3.85;;;17.70;99.90;;;16.73;67.56;100923.84;4953653;28;20035;-75
2022/06/06 03:42:16;;;;;;;6.53;4.00;;;17.60;99.90;;;16.64;68.28;100913.84;4958362;28;20074;-75
2022/06/06 03:45:09;;;;;;;8.60;3.35;;;17.70;99.90;;;16.68;67.93;100921.50;4951842;28;20381;-74
2022/06/06 03:47:59;;;;;;;9.57;4.20;;;17.70;99.90;;;16.70;68.15;100916.09;4949629;28;20488;-74
2022/06/06 03:50:52;;;;;;;12.32;3.42;;;17.70;99.90;;;16.70;68.00;100918.75;4942268;28;20034;-75
2022/06/06 03:53:54;;;;;;;8.48;3.33;;;17.70;99.90;;;16.73;68.05;100919.38;4937354;28;20093;-74
2022/06/06 03:57:03;;;;;;;6.45;3.47;;;17.70;99.90;;;16.74;67.46;100923.75;4957852;28;20039;-75
2022/06/06 03:59:31;;;;;;;5.88;3.67;;;17.70;99.90;;;16.73;67.85;100926.50;4935129;28;20169;-74
2022/06/06 04:02:05;;;;;;;7.75;4.13;;;17.60;99.90;;;16.68;68.01;100923.31;4959154;28;20459;-75
2022/06/06 04:04:32;;;;;;;8.60;3.75;;;17.60;99.90;;;16.70;68.70;100919.59;4955135;28;20114;-74
2022/06/06 04:07:01;;;;;;;6.57;4.13;;;17.70;99.90;;;16.72;68.67;100925.66;4950879;28;20037;-74
2022/06/06 04:09:32;;;;;;;6.45;3.60;;;17.60;99.90;;;16.59;68.78;100923.00;4936712;28;20034;-74
2022/06/06 04:12:17;;;;;;;5.85;3.58;;;17.60;99.90;;;16.63;69.34;100920.13;4945720;28;20027;-74
2022/06/06 04:15:26;;;;;;;8.15;4.03;;;17.50;99.90;;;16.59;68.79;100919.50;4975379;28;20062;-75
2022/06/06 04:18:26;;;;;;;10.00;4.20;;;17.60;99.90;;;16.66;69.29;100927.91;4927512;28;20030;-74
2022/06/06 04:21:30;;;;;;;6.70;3.72;;;17.60;99.90;;;16.63;70.18;100933.41;4950380;28;20409;-75
2022/06/06 04:24:21;;;;;;;8.77;4.10;;;17.50;99.90;;;16.46;71.95;100926.56;4953242;28;20035;-74
2022/06/06 04:26:53;;;;;;;8.20;4.13;;;17.40;99.90;;;16.42;72.29;100928.63;4952843;28;20031;-73
2022/06/06 04:29:27;;;;;;;7.32;4.03;;;17.40;99.90;;;16.39;73.51;100927.03;4951880;28;20031;-75
2022/06/06 04:32:15;;;;;;;8.20;4.65;;;17.30;99.90;;;16.38;74.08;100927.97;4950395;28;20065;-76
2022/06/06 04:35:02;;;;;;;6.63;4.35;;;17.30;99.90;;;16.34;74.54;100933.59;4950771;28;20043;-74
2022/06/06 04:37:36;;;;;;;10.20;4.90;;;17.20;99.90;;;16.25;75.34;100934.22;4925456;28;20041;-73
2022/06/06 04:40:40;;;;;;;7.03;4.60;;;17.20;99.90;;;16.18;76.50;100934.63;4941209;28;20042;-73
2022/06/06 04:43:38;;;;;;;9.38;4.80;;;17.10;99.90;;;16.10;76.81;100934.28;4955242;28;20050;-74
2022/06/06 04:46:49;;;;;;;9.43;4.22;;;17.10;99.90;;;16.03;78.38;100938.31;4933583;28;20045;-75
2022/06/06 04:49:16;;;;;;;11.98;4.50;;;17.00;99.90;;;15.93;78.53;100940.69;4912162;28;20039;-76
2022/06/06 04:51:46;;;;;;;7.97;3.95;;;16.90;99.90;;;15.78;79.41;100939.91;4916260;28;20307;-76
2022/06/06 04:54:20;;;;;;;7.28;4.00;;;16.80;99.90;;;15.77;79.72;100937.38;4958000;28;20031;-75
2022/06/06 04:56:47;;;;;;;4.55;3.50;;;16.80;99.90;;;15.68;79.77;100938.78;4957217;28;20062;-75
2022/06/06 04:59:15;;;;;;;6.30;4.10;;;16.70;99.90;;;15.63;80.00;100953.28;4934905;28;20491;-75
2022/06/06 05:01:42;;;;;;;5.85;4.13;;;16.60;99.90;;;15.54;79.79;100949.41;4935930;28;20051;-75
2022/06/06 05:04:08;;;;;;;5.80;3.60;;;16.60;99.90;;;15.50;80.40;100948.75;4927188;28;20034;-76
2022/06/06 05:07:02;;;;;;;4.82;3.90;;;16.50;99.90;;;15.38;81.45;100945.09;4919812;28;20045;-75
2022/06/06 05:09:45;;;;;;;9.98;4.47;;;16.40;99.90;;;15.33;82.59;100941.88;4949793;28;20098;-76
2022/06/06 05:12:50;;;;;;;5.90;4.43;;;16.40;99.90;;;15.25;83.05;100944.16;4936375;28;20029;-75
2022/06/06 05:15:34;;;;;;;7.93;4.50;;;16.30;99.90;;;15.24;83.61;100942.44;4952840;28;20046;-75
2022/06/06 05:18:33;;;;;;;9.55;4.28;;;16.30;99.90;;;15.14;83.78;100941.31;4959944;28;20027;-75
2022/06/06 05:21:34;;;;;;;7.25;4.13;;;16.20;99.90;;;15.04;84.92;100956.09;4943126;28;20027;-75
2022/06/06 05:24:03;;;;;;;8.57;4.70;;;16.10;99.90;;;15.05;85.63;100947.19;4957759;28;20038;-75
2022/06/06 05:26:50;;;;;;;9.45;4.50;;;16.10;99.90;;;15.12;85.77;100951.19;4959962;28;21180;-75
2022/06/06 05:29:52;;;;;;;9.60;4.80;;;16.10;99.90;;;15.13;86.01;100950.22;4956078;28;20039;-76
2022/06/06 05:32:45;;;;;;;7.30;4.70;;;16.10;99.90;;;15.15;85.92;100953.63;4949311;28;20027;-75
2022/06/06 05:35:33;;;;;;;12.57;4.72;;;16.10;99.90;;;15.11;86.68;100952.13;4949753;28;20021;-76
2022/06/06 05:38:35;;;;;;;7.40;5.47;;;16.10;99.90;;;15.03;88.78;100955.25;4957873;28;20035;-77
2022/06/06 05:41:30;;;;;;;10.20;4.85;;;16.10;99.90;;;15.03;89.11;100946.44;4968534;28;20387;-77
2022/06/06 05:44:30;;;;;;;7.72;5.18;;;17.20;99.90;;;14.96;90.95;100938.84;4931434;28;20033;-77
2022/06/06 05:47:32;;;;;;;7.63;4.75;;;15.90;99.90;;;14.77;93.60;100932.97;4931163;28;20050;-78
2022/06/06 05:50:21;;;;;;;8.75;4.75;;;15.90;99.90;;;14.70;95.12;100936.94;4933503;28;20445;-77
2022/06/06 05:53:34;;;;;;;9.27;4.97;;;15.80;99.90;;;14.75;94.53;100951.63;4949776;28;20480;-76
2022/06/06 05:56:26;;;;;;;6.63;5.60;;;15.80;99.90;;;14.78;95.20;100953.25;4909266;28;20089;-77
2022/06/06 05:59:20;;;;;;;10.55;5.90;;;15.80;99.90;;;14.87;96.26;100976.53;4915261;28;20035;-76
2022/06/06 06:02:23;;;;;;;13.18;5.30;;;15.80;99.90;;;14.86;96.89;100977.50;4929803;28;20041;-77
2022/06/06 06:05:28;;;;;;;12.18;5.75;;;15.80;99.90;;;14.91;97.12;100980.72;4945063;28;20213;-77
2022/06/06 06:08:06;;;;;;;9.10;5.72;;;15.90;99.90;;;14.97;96.99;100985.66;4957780;28;20027;-76
2022/06/06 06:11:01;;;;;;;11.05;6.20;;;15.80;99.90;;;14.81;100.00;100984.00;4912892;28;20023;-76
2022/06/06 06:14:05;;;;;;;6.88;5.65;;;15.70;99.90;;;14.76;100.00;100974.53;4933309;28;20026;-75
2022/06/06 06:16:39;;;;;;;7.95;5.45;;;15.80;99.90;;;15.00;100.00;100966.03;4943814;28;20054;-75
2022/06/06 06:19:11;;;;;;;9.07;6.60;;;15.90;99.90;;;15.28;100.00;100959.03;4958415;28;20047;-75
2022/06/06 06:21:57;;;;;;;9.88;6.30;;;16.00;99.90;;;15.36;100.00;100962.91;4956244;28;20043;-75
2022/06/06 06:24:31;;;;;;;10.38;6.18;;;16.20;99.90;;;15.55;99.28;100961.72;4931148;28;20016;-75
2022/06/06 06:26:58;;;;;;;6.60;5.55;;;16.30;99.90;;;15.45;100.00;100971.25;4951458;28;20054;-75
2022/06/06 06:29:25;;;;;;;8.60;6.30;;;16.30;99.90;;;15.49;99.22;100964.78;4959236;28;20030;-74
2022/06/06 06:32:13;;;;;;;7.57;5.80;;;16.30;99.90;;;15.41;99.20;100967.06;4945030;28;20058;-75
2022/06/06 06:34:53;;;;;;;9.35;6.53;;;16.30;99.90;;;15.25;100.00;100964.50;4952614;28;20605;-74
2022/06/06 06:38:04;;;;;;;11.93;6.10;;;16.30;99.90;;;15.37;100.00;100963.75;4954196;28;20081;-74
2022/06/06 06:40:54;;;;;;;8.45;5.97;;;16.30;99.90;;;15.35;99.28;100969.16;4944084;28;20491;-74
2022/06/06 06:44:12;;;;;;;9.93;6.20;;;16.30;99.90;;;15.36;99.08;100965.56;4951702;28;20038;-74
2022/06/06 06:46:46;;;;;;;9.95;6.32;;;16.30;99.90;;;15.44;99.49;100969.53;4891340;29;20043;-74
2022/06/06 06:49:27;;;;;;;8.80;6.15;;;16.40;99.90;;;15.51;98.70;100976.16;4940817;28;20038;-74
2022/06/06 06:52:11;;;;;;;10.07;6.15;;;16.40;99.90;;;15.54;98.33;100981.25;4963037;28;20399;-74
2022/06/06 06:55:10;;;;;;;8.70;5.70;;;16.50;99.90;;;15.55;97.96;100975.00;4952639;28;20558;-75
2022/06/06 06:58:03;;;;;;;8.38;6.43;;;16.50;99.90;;;15.58;98.76;100961.53;4936052;28;20039;-74
2022/06/06 07:00:43;;;;;;;12.00;6.50;;;16.50;99.90;;;15.65;99.47;100977.94;4954097;28;20046;-74
2022/06/06 07:09:57;;;;;;;11.63;7.00;;;16.70;99.90;;;15.79;100.00;100992.06;4958023;28;20042;-75
2022/06/06 07:12:54;;;;;;;10.10;7.05;;;16.70;99.90;;;15.90;99.89;100991.38;4942884;28;20118;-74
2022/06/06 07:15:50;;;;;;;9.40;7.22;;;16.70;99.90;;;15.85;100.00;100989.94;4951523;28;20031;-75
2022/06/06 07:18:19;;;;;;;10.70;7.00;;;16.70;99.90;;;15.70;100.00;100982.00;4974223;28;20039;-75
2022/06/06 07:20:48;;;;;;;13.93;7.57;;;16.70;99.90;;;15.72;100.00;100987.22;4935319;28;20364;-74
2022/06/06 07:23:16;;;;;;;10.40;7.45;;;16.70;99.90;;;15.61;100.00;100982.56;4915038;28;20028;-74
2022/06/06 07:25:48;;;;;;;9.45;7.50;;;16.60;99.90;;;15.57;100.00;100973.09;4947466;28;20159;-74
2022/06/06 07:28:23;;;;;;;8.40;7.22;;;16.60;99.90;;;15.59;100.00;100976.50;4942829;28;20121;-75
2022/06/06 07:31:07;;;;;;;11.13;8.38;;;16.50;99.90;;;15.59;100.00;100984.47;4957520;28;20535;-75
2022/06/06 07:34:14;;;;;;;14.23;7.93;;;16.60;99.90;;;15.53;100.00;100979.56;4949444;28;20039;-74
2022/06/06 07:37:31;;;;;;;14.07;8.20;;;16.50;99.90;;;15.64;100.00;100965.63;4962863;28;20043;-74
2022/06/06 07:40:44;;;;;;;9.95;8.32;;;16.60;99.90;;;15.73;100.00;100973.88;4953402;28;20054;-74
2022/06/06 07:43:35;;;;;;;11.55;8.52;;;16.60;99.90;;;15.76;100.00;100994.03;4944791;28;20054;-74
2022/06/06 07:46:38;;;;;;;9.48;8.48;;;16.70;99.90;;;15.60;100.00;100980.88;4936389;28;20027;-74
2022/06/06 07:49:35;;;;;;;11.68;9.38;;;16.60;99.90;;;15.59;100.00;100990.66;4952266;28;20684;-74
2022/06/06 07:52:26;;;;;;;14.82;9.77;;;16.60;99.90;;;15.55;100.00;100980.31;4933163;28;20022;-74
2022/06/06 07:55:28;;;;;;;10.68;9.25;;;16.50;99.90;;;15.59;100.00;100982.69;4951408;28;20062;-74
2022/06/06 07:58:56;;;;;;;13.02;9.75;;;16.60;99.90;;;15.71;100.00;100988.16;4957693;28;20023;-75
2022/06/06 08:02:19;;;;;;;14.43;10.13;;;16.60;99.90;;;15.73;100.00;100981.81;4930385;28;20023;-74
2022/06/06 08:05:29;;;;;;;15.38;10.90;;;16.60;99.90;;;15.94;100.00;100992.03;4952721;28;20054;-74
2022/06/06 08:08:19;;;;;;;12.55;11.00;;;16.80;99.90;;;16.14;100.00;100988.91;4952130;28;20391;-74
2022/06/06 08:10:47;;;;;;;13.90;11.05;;;17.00;99.90;;;16.33;100.00;101001.84;4936440;28;20023;-74
2022/06/06 08:13:36;;;;;;;18.05;12.07;;;17.10;99.90;;;16.69;100.00;101002.13;4961362;28;20035;-74
2022/06/06 08:16:39;;;;;;;17.35;10.82;;;17.30;99.90;;;16.89;100.00;101004.31;4960545;28;20581;-74
2022/06/06 08:19:40;;;;;;;13.80;11.38;;;17.70;99.90;;;17.42;100.00;101007.69;4918293;28;20150;-74
2022/06/06 08:22:08;;;;;;;15.13;11.10;;;18.10;99.90;;;17.87;100.00;101009.84;4975708;28;20038;-74
2022/06/06 08:24:39;;;;;;;14.90;10.98;;;18.60;99.90;;;18.77;95.20;101014.75;4948501;28;20031;-74
2022/06/06 08:27:13;;;;;;;13.70;10.38;;;19.20;99.90;;;19.57;89.72;101013.88;4929561;28;20077;-75
2022/06/06 08:29:42;;;;;;;11.63;10.00;;;20.00;99.90;;;20.52;85.72;101015.91;4941585;28;22309;-76
2022/06/06 08:32:10;;;;;;;12.35;9.75;;;20.60;99.90;;;20.96;82.75;101016.69;4937879;28;20629;-75
2022/06/06 08:34:37;;;;;;;12.15;9.82;;;21.20;99.90;;;21.66;79.61;101013.25;4935471;28;20084;-74
2022/06/06 08:37:29;;;;;;;16.02;9.63;;;22.00;99.90;;;22.59;76.42;101019.16;4952348;28;20034;-75
2022/06/06 08:40:04;;;;;;;15.98;9.60;;;22.80;99.90;;;23.27;74.71;101028.94;4949916;28;20411;-74
2022/06/06 08:42:49;;;;;;;13.23;8.88;;;23.40;99.90;;;23.79;71.68;101023.06;4940393;28;20031;-74
2022/06/06 08:45:49;;;;;;;10.80;9.52;;;23.90;99.90;;;24.11;71.53;101033.34;4941214;28;20556;-74
2022/06/06 08:48:55;;;;;;;10.05;9.05;;;24.40;99.90;;;24.28;70.87;101035.19;4933611;28;20495;-75
2022/06/06 08:51:50;;;;;;;9.40;8.23;;;24.60;99.90;;;24.44;68.25;101033.66;4955691;28;20047;-74
2022/06/06 08:55:19;;;;;;;10.25;8.93;;;24.80;99.90;;;24.28;68.29;101040.56;4950540;28;20077;-75
2022/06/06 08:58:41;;;;;;;10.80;9.68;;;24.70;99.90;;;23.97;69.08;101036.53;4949861;28;20130;-75
2022/06/06 09:01:47;;;;;;;9.90;8.88;;;24.50;99.90;;;23.90;70.50;101038.97;4895841;28;20568;-75
2022/06/06 09:05:08;;;;;;;11.10;8.88;;;24.50;99.90;;;24.43;69.85;101026.56;4942089;28;20081;-75
2022/06/06 09:08:10;;;;;;;9.88;8.60;;;24.80;99.90;;;24.87;68.45;101040.91;4951619;28;20082;-75
2022/06/06 09:11:20;;;;;;;11.73;8.52;;;25.10;99.90;;;25.09;68.09;101036.03;4952520;28;20030;-74
2022/06/06 09:14:05;;;;;;;12.13;8.05;;;25.40;99.90;;;25.12;65.42;101041.09;4950866;28;20039;-74
2022/06/06 09:17:17;;;;;;;9.35;7.22;;;25.40;99.90;;;25.03;65.43;101033.97;4950521;28;20038;-75
2022/06/06 09:20:26;;;;;;;9.38;6.75;;;25.30;99.90;;;24.74;65.99;101033.25;4949156;28;20045;-75
2022/06/06 09:23:28;;;;;;;8.65;6.68;;;25.10;99.90;;;24.49;67.02;101040.28;4960297;28;20484;-75
2022/06/06 09:26:30;;;;;;;7.20;6.50;;;24.90;99.90;;;24.24;67.33;101041.03;4954713;28;20046;-75
2022/06/06 09:29:42;;;;;;;9.63;5.65;;;24.80;99.90;;;24.26;67.80;101047.94;4936103;28;20996;-75
2022/06/06 09:32:58;;;;;;;5.13;4.30;;;24.90;99.90;;;24.96;64.88;101047.22;4952378;28;20038;-75
2022/06/06 09:36:29;;;;;;;3.60;3.30;;;25.30;99.90;;;25.45;62.73;101049.41;4963584;28;20023;-75
2022/06/06 09:39:34;;;;;;;3.38;3.08;;;25.90;99.90;;;25.87;59.27;101049.38;4921315;28;20425;-75
2022/06/06 09:42:45;;;;;;;2.67;2.42;;;26.20;99.90;;;25.88;59.20;101051.13;4911423;28;20055;-75
2022/06/06 09:46:08;;;;;;;3.88;3.42;;;26.10;99.90;;;25.63;60.96;101054.69;4933692;28;20049;-75
2022/06/06 09:49:14;;;;;;;5.07;2.75;;;26.00;99.90;;;25.46;60.91;101061.88;4955601;28;20035;-74
2022/06/06 09:52:29;;;;;;;3.45;2.78;;;25.90;99.90;;;25.46;60.97;101060.00;4954141;28;20113;-75
2022/06/06 09:59:20;;;;;;;3.60;2.22;;;25.70;99.90;;;25.28;60.92;101068.16;4950331;28;20061;-75
2022/06/06 10:02:33;;;;;;;4.15;2.40;;;25.60;99.90;;;25.12;59.00;101076.97;4963305;28;20031;-75
2022/06/06 10:05:23;;;;;;;3.40;2.50;;;25.60;99.90;;;25.25;58.62;101070.31;4916455;28;20062;-76
2022/06/06 10:08:35;;;;;;;4.40;2.80;;;25.70;99.90;;;25.53;58.40;101073.72;4944711;28;20097;-75
2022/06/06 10:11:46;;;;;;;3.45;3.08;;;25.90;99.90;;;25.99;59.51;101083.19;4954899;28;20114;-76
2022/06/06 10:14:27;;;;;;;3.78;2.55;;;26.30;99.90;;;26.48;56.91;101084.28;4957905;28;20023;-77
2022/06/06 10:17:26;;;;;;;3.30;2.67;;;26.70;99.90;;;26.80;54.38;101087.06;4950510;28;20034;-75
2022/06/06 10:20:38;;;;;;;5.07;3.40;;;27.00;99.90;;;27.01;53.17;101094.63;4952279;28;20161;-75
2022/06/06 10:23:46;;;;;;;4.28;3.88;;;27.30;99.90;;;27.31;53.65;101099.53;4954356;28;20027;-75
2022/06/06 10:26:50;;;;;;;4.63;4.00;;;27.50;99.90;;;27.34;52.38;101107.28;4940924;28;20039;-75
2022/06/06 10:33:13;;;;;;;7.95;4.43;;;27.30;99.90;;;26.69;53.48;101110.84;4950862;28;20085;-76
2022/06/06 10:35:44;;;;;;;5.03;4.50;;;27.00;99.90;;;26.32;54.10;101104.88;4958804;28;20547;-75
2022/06/06 10:38:45;;;;;;;5.32;4.65;;;26.70;99.90;;;25.81;54.29;101103.13;4969962;28;20026;-77
2022/06/06 10:41:47;;;;;;;7.05;4.97;;;26.30;99.90;;;25.60;55.34;101099.00;4940129;28;20031;-76
2022/06/06 10:44:43;;;;;;;7.47;4.95;;;26.10;99.90;;;25.71;56.47;101105.97;4940541;28;20506;-76
2022/06/06 10:48:13;;;;;;;7.20;5.53;;;26.20;99.90;;;26.18;56.24;101102.81;4954187;28;20117;-76
2022/06/06 10:51:38;;;;;;;9.23;5.50;;;26.50;99.90;;;26.60;53.45;101096.50;4952145;28;20403;-76
2022/06/06 10:54:53;;;;;;;5.50;4.93;;;26.90;99.90;;;26.86;52.42;101109.00;4941860;28;20040;-76
2022/06/06 10:57:52;;;;;;;7.88;5.35;;;27.10;99.90;;;27.01;52.38;101107.31;4951574;28;20057;-76
2022/06/06 11:00:44;;;;;;;6.95;5.20;;;27.30;99.90;;;27.24;52.91;101115.59;4952481;28;20451;-76
2022/06/06 11:03:43;;;;;;;5.55;5.00;;;27.50;99.90;;;27.34;51.16;101116.28;4932410;28;20019;-77
2022/06/06 11:06:51;;;;;;;6.68;5.15;;;27.60;99.70;;;27.35;52.04;101120.66;4964814;28;20035;-75
2022/06/06 11:09:32;;;;;;;6.93;5.45;;;27.50;99.40;;;26.94;51.40;101120.66;4951107;28;20113;-76
2022/06/06 11:12:32;;;;;;;7.70;5.22;;;27.40;99.20;;;26.70;52.12;101121.50;4951155;28;20035;-76
2022/06/06 11:15:02;;;;;;;7.30;5.65;;;27.10;99.90;;;26.40;53.19;101121.09;4952187;28;20041;-76
2022/06/06 11:18:04;;;;;;;7.05;5.80;;;26.80;99.90;;;26.05;54.64;101118.59;4957928;28;20120;-78
2022/06/06 11:21:27;;;;;;;8.85;5.45;;;26.50;99.70;;;25.76;54.46;101119.81;4950695;28;20043;-75
2022/06/06 11:24:12;;;;;;;7.60;5.80;;;26.30;99.90;;;25.53;55.39;101125.78;4956452;28;20035;-76
2022/06/06 11:27:35;;;;;;;6.95;5.75;;;26.10;99.90;;;25.48;56.21;101116.47;4948298;28;20495;-75
2022/06/06 11:30:44;;;;;;;7.85;6.05;;;25.90;99.90;;;25.45;55.29;101120.31;4947427;28;20097;-78
2022/06/06 11:33:40;;;;;;;8.18;6.13;;;26.00;99.90;;;25.66;56.09;101113.69;4943646;28;20050;-75
2022/06/06 11:36:33;;;;;;;7.78;6.38;;;26.10;99.90;;;25.84;55.27;101124.41;4951087;28;20090;-77
2022/06/06 11:39:26;;;;;;;6.03;5.43;;;26.20;99.90;;;25.87;54.99;101126.78;4952777;28;20062;-76
2022/06/06 11:42:40;;;;;;;10.00;6.00;;;26.20;99.90;;;25.88;54.46;101133.88;4951566;28;20045;-76
2022/06/06 11:45:53;;;;;;;7.82;6.38;;;26.20;99.90;;;25.76;54.74;101128.75;4952102;28;20065;-76
2022/06/06 11:48:56;;;;;;;6.75;5.97;;;26.20;99.90;;;25.88;55.85;101134.75;4954214;28;20023;-76
2022/06/06 11:51:59;;;;;;;9.35;6.32;;;26.30;99.90;;;25.93;54.63;101134.25;4956192;28;20122;-75
2022/06/06 11:55:24;;;;;;;7.28;6.47;;;26.30;99.90;;;25.85;54.49;101132.31;4948760;28;20047;-76
2022/06/06 11:58:20;;;;;;;7.78;6.60;;;26.20;99.90;;;25.72;55.63;101132.78;4957448;28;20015;-75